createdAt,value
2019-04-05T00:01:50.800Z,3.57
2019-04-05T00:07:06.383Z,5.03
2019-04-05T00:12:22.385Z,5.27
2019-04-05T00:17:38.087Z,4.73
2019-04-05T00:22:54.279Z,4.83
2019-04-05T00:28:10.136Z,4.87
2019-04-05T00:33:26.060Z,4.73
2019-04-05T00:38:41.911Z,6.30
2019-04-05T00:43:57.630Z,4.60
2019-04-05T00:49:13.569Z,5.40
2019-04-05T00:54:29.167Z,5.07
2019-04-05T00:59:44.762Z,5.97
2019-04-05T01:05:02.152Z,7.23
2019-04-05T01:10:18.618Z,3.93
2019-04-05T01:15:40.815Z,4.93
2019-04-05T01:20:52.844Z,5.30
2019-04-05T01:26:10.209Z,5.30
2019-04-05T01:31:26.230Z,5.60
2019-04-05T01:36:41.887Z,4.73
2019-04-05T01:41:57.782Z,4.77
2019-04-05T01:47:13.715Z,4.77
2019-04-05T01:52:29.387Z,6.53
2019-04-05T01:57:44.965Z,7.73
2019-04-05T02:03:00.618Z,5.13
2019-04-05T02:08:16.305Z,7.40
2019-04-05T02:13:31.911Z,6.17
2019-04-05T02:18:47.858Z,6.67
2019-04-05T02:24:03.567Z,5.17
2019-04-05T02:29:19.751Z,5.30
2019-04-05T02:34:35.739Z,6.03
2019-04-05T02:39:54.716Z,5.73
2019-04-05T02:45:11.669Z,4.73
2019-04-05T02:50:37.776Z,6.70
2019-04-05T02:55:54.831Z,5.77
2019-04-05T03:01:11.319Z,5.67
2019-04-05T03:06:27.842Z,6.50
2019-04-05T03:11:44.745Z,6.83
2019-04-05T03:17:01.547Z,6.37
2019-04-05T03:22:18.265Z,5.43
2019-04-05T03:27:37.303Z,5.97
2019-04-05T03:32:53.226Z,6.23
2019-04-05T03:38:09.444Z,5.80
2019-04-05T03:43:25.799Z,4.70
2019-04-05T03:48:41.630Z,4.40
2019-04-05T03:53:57.334Z,4.90
2019-04-05T03:59:13.999Z,7.37
2019-04-05T04:04:29.865Z,5.27
2019-04-05T04:09:46.042Z,6.13
2019-04-05T04:15:14.177Z,5.30
2019-04-05T04:20:43.174Z,5.83
2019-04-05T04:25:59.615Z,5.80
2019-04-05T04:31:16.005Z,6.13
2019-04-05T04:36:32.054Z,5.83
2019-04-05T04:41:47.507Z,4.70
2019-04-05T04:47:03.190Z,6.20
2019-04-05T04:52:19.843Z,5.07
2019-04-05T04:57:35.545Z,6.87
2019-04-05T05:02:52.046Z,5.10
2019-04-05T05:08:12.835Z,5.83
2019-04-05T05:13:28.572Z,6.60
2019-04-05T05:18:44.719Z,6.07
2019-04-05T05:24:00.881Z,6.87
2019-04-05T05:29:16.580Z,6.43
2019-04-05T05:34:32.634Z,7.07
2019-04-05T05:39:48.460Z,7.30
2019-04-05T05:45:04.209Z,5.87
2019-04-05T05:50:19.815Z,5.77
2019-04-05T05:55:39.953Z,6.43
2019-04-05T06:00:56.245Z,7.63
2019-04-05T06:06:11.476Z,6.53
2019-04-05T06:11:27.166Z,6.93
2019-04-05T06:16:46.521Z,5.73
2019-04-05T06:22:00.622Z,7.30
2019-04-05T06:27:16.158Z,6.93
2019-04-05T06:32:31.746Z,7.03
2019-04-05T06:37:47.125Z,9.07
2019-04-05T06:43:02.774Z,8.47
2019-04-05T06:48:19.775Z,9.70
2019-04-05T06:53:37.401Z,9.03
2019-04-05T06:58:53.221Z,7.73
2019-04-05T07:04:09.214Z,8.30
2019-04-05T07:09:25.888Z,9.23
2019-04-05T07:14:41.554Z,11.10
2019-04-05T07:19:57.466Z,11.50
2019-04-05T07:25:13.537Z,10.70
2019-04-05T07:30:29.597Z,12.37
2019-04-05T07:35:45.603Z,11.07
2019-04-05T07:41:01.498Z,12.43
2019-04-05T07:46:17.113Z,13.40
2019-04-05T07:51:32.908Z,14.60
2019-04-05T07:56:48.663Z,13.77
2019-04-05T08:02:04.534Z,17.17
2019-04-05T08:07:21.271Z,14.13
2019-04-05T08:12:37.856Z,13.70
2019-04-05T08:17:53.936Z,11.87
2019-04-05T08:23:09.636Z,15.43
2019-04-05T08:28:29.523Z,15.33
2019-04-05T08:33:44.390Z,13.73
2019-04-05T08:39:00.948Z,15.83
2019-04-05T08:44:18.028Z,14.77
2019-04-05T08:49:33.618Z,14.67
2019-04-05T08:54:49.455Z,17.07
2019-04-05T09:00:05.865Z,16.10
2019-04-05T09:05:26.359Z,14.80
2019-04-05T09:10:45.448Z,15.53
2019-04-05T09:16:01.649Z,16.97
2019-04-05T09:21:18.859Z,16.23
2019-04-05T09:26:37.965Z,14.70
2019-04-05T09:31:58.526Z,15.90
2019-04-05T09:37:14.467Z,13.33
2019-04-05T09:42:30.525Z,17.97
2019-04-05T09:47:46.181Z,18.00
2019-04-05T09:53:02.003Z,13.73
2019-04-05T09:58:17.652Z,14.63
2019-04-05T10:03:34.128Z,10.97
2019-04-05T10:08:52.475Z,14.63
2019-04-05T10:14:08.071Z,18.83
2019-04-05T10:19:23.918Z,14.37
2019-04-05T10:25:07.339Z,17.10
2019-04-05T10:30:23.655Z,16.90
2019-04-05T10:35:39.714Z,14.27
2019-04-05T10:40:55.893Z,15.80
2019-04-05T10:46:11.699Z,14.47
2019-04-05T10:51:27.584Z,14.30
2019-04-05T10:56:43.333Z,13.83
2019-04-05T11:01:59.363Z,13.97
2019-04-05T11:07:14.870Z,14.63
2019-04-05T11:12:30.645Z,13.53
2019-04-05T11:17:46.203Z,14.07
2019-04-05T11:23:02.412Z,11.43
2019-04-05T11:28:19.663Z,15.20
2019-04-05T11:33:35.919Z,12.33
2019-04-05T11:38:51.496Z,12.17
2019-04-05T11:44:07.239Z,13.13
2019-04-05T11:49:23.923Z,13.07
2019-04-05T11:54:40.054Z,12.47
2019-04-05T12:00:22.990Z,13.63
2019-04-05T12:05:38.845Z,12.90
2019-04-05T12:11:26.383Z,15.20
2019-04-05T12:16:56.845Z,12.37
2019-04-05T12:22:27.073Z,12.10
2019-04-05T12:27:42.971Z,14.50
2019-04-05T12:32:58.782Z,17.03
2019-04-05T12:38:32.483Z,12.37
2019-04-05T12:43:50.897Z,14.40
2019-04-05T12:49:06.921Z,14.07
2019-04-05T12:54:22.705Z,17.30
2019-04-05T12:59:39.879Z,12.67
2019-04-05T13:04:55.512Z,14.40
2019-04-05T13:10:12.726Z,11.33
2019-04-05T13:15:28.952Z,12.33
2019-04-05T13:20:48.384Z,10.70
2019-04-05T13:26:22.139Z,10.57
2019-04-05T13:31:38.245Z,9.47
2019-04-05T13:36:54.109Z,11.03
2019-04-05T13:42:12.953Z,10.50
2019-04-05T13:47:28.937Z,10.83
2019-04-05T13:52:45.202Z,10.77
2019-04-05T13:58:01.202Z,13.77
2019-04-05T14:03:21.186Z,11.50
2019-04-05T14:08:41.134Z,10.90
2019-04-05T14:13:54.644Z,10.80
2019-04-05T14:19:10.677Z,9.23
2019-04-05T14:24:26.594Z,10.67
2019-04-05T14:29:52.880Z,6.23
2019-04-05T14:35:39.886Z,10.97
2019-04-05T14:40:56.746Z,7.60
2019-04-05T14:46:12.344Z,8.53
2019-04-05T14:51:28.700Z,11.23
2019-04-05T14:56:45.988Z,7.73
2019-04-05T15:02:02.002Z,9.33
2019-04-05T15:07:20.945Z,6.57
2019-04-05T15:12:37.045Z,9.63
2019-04-05T15:17:52.919Z,7.63
2019-04-05T15:23:09.698Z,9.87
2019-04-05T15:28:25.943Z,8.30
2019-04-05T15:33:41.454Z,7.50
2019-04-05T15:39:01.107Z,6.50
2019-04-05T15:44:20.287Z,8.80
2019-04-05T15:49:36.299Z,7.53
2019-04-05T15:54:52.038Z,7.93
2019-04-05T16:00:11.399Z,6.73
2019-04-05T16:05:27.389Z,7.27
2019-04-05T16:10:45.558Z,8.87
2019-04-05T16:16:01.282Z,11.10
2019-04-05T16:21:17.025Z,12.27
2019-04-05T16:26:36.947Z,10.70
2019-04-05T16:31:55.102Z,9.00
2019-04-05T16:37:11.099Z,7.93
2019-04-05T16:42:26.844Z,11.27
2019-04-05T16:47:42.589Z,9.33
2019-04-05T16:53:00.067Z,13.20
2019-04-05T16:58:18.797Z,11.20
2019-04-05T17:03:41.798Z,12.60
2019-04-05T17:08:57.631Z,13.70
2019-04-05T17:14:15.260Z,14.10
2019-04-05T17:19:34.875Z,9.93
2019-04-05T17:24:51.859Z,11.57
2019-04-05T17:30:10.259Z,12.73
2019-04-05T17:35:26.890Z,16.07
2019-04-05T17:40:43.169Z,20.47
2019-04-05T17:45:59.287Z,16.97
2019-04-05T17:51:15.779Z,19.53
2019-04-05T18:01:55.319Z,19.40
2019-04-05T18:07:15.876Z,19.10
2019-04-05T18:12:35.368Z,18.50
2019-04-05T18:17:51.959Z,15.33
2019-04-05T18:23:07.785Z,19.40
2019-04-05T18:28:23.577Z,20.63
2019-04-05T18:33:39.532Z,13.47
2019-04-05T18:38:55.801Z,18.23
2019-04-05T18:44:14.515Z,13.70
2019-04-05T18:49:34.600Z,12.33
2019-04-05T18:54:50.766Z,15.80
2019-04-05T19:00:13.518Z,17.07
2019-04-05T19:05:30.530Z,17.40
2019-04-05T19:10:46.684Z,18.27
2019-04-05T19:16:02.866Z,17.20
2019-04-05T19:21:19.051Z,16.50
2019-04-05T19:26:37.822Z,14.00
2019-04-05T19:53:17.119Z,15.70
2019-04-05T19:58:32.861Z,13.33
2019-04-05T20:03:50.372Z,18.33
2019-04-05T20:09:08.980Z,15.13
2019-04-05T20:14:25.290Z,17.83
2019-04-05T20:19:44.648Z,17.67
2019-04-05T20:25:03.109Z,16.20
2019-04-05T20:30:18.996Z,12.73
2019-04-05T20:35:36.100Z,13.33
2019-04-05T20:40:51.739Z,13.93
2019-04-05T20:46:11.783Z,14.03
2019-04-05T20:51:31.255Z,16.20
2019-04-05T20:56:47.241Z,14.17
2019-04-05T21:02:02.970Z,14.90
2019-04-05T21:07:18.924Z,18.17
2019-04-05T21:12:34.999Z,14.60
2019-04-05T21:17:51.217Z,14.67
2019-04-05T21:23:07.205Z,13.87
2019-04-05T21:28:23.570Z,11.07
2019-04-05T21:33:40.085Z,14.43
2019-04-05T21:38:59.013Z,12.50
2019-04-05T21:44:15.883Z,13.10
2019-04-05T21:49:32.704Z,11.33
2019-04-05T21:54:49.988Z,11.07
2019-04-05T22:00:11.436Z,10.93
2019-04-05T22:05:29.351Z,12.00
2019-04-05T22:10:46.155Z,15.53
2019-04-05T22:16:03.660Z,13.90
2019-04-05T22:21:19.579Z,20.10
2019-04-05T22:26:36.725Z,20.43
2019-04-05T22:31:53.810Z,22.93
2019-04-05T22:37:09.706Z,18.40
2019-04-05T22:42:25.883Z,15.73
2019-04-05T22:47:43.988Z,16.90
2019-04-05T22:53:01.186Z,12.40
2019-04-05T22:58:17.231Z,15.87
2019-04-05T23:03:32.889Z,15.27
2019-04-05T23:08:48.654Z,19.73
2019-04-05T23:14:04.664Z,14.67
2019-04-05T23:19:20.684Z,15.07
2019-04-05T23:24:36.605Z,16.20
2019-04-05T23:29:52.364Z,17.43
2019-04-05T23:35:08.739Z,17.00
2019-04-05T23:40:25.027Z,16.80
2019-04-05T23:45:41.270Z,17.60
2019-04-05T23:50:57.362Z,20.30
2019-04-05T23:56:14.495Z,20.63
